Time;durP1;ratioP1;P1;durP2;ratioP2;P2;SDS_P1;SDS_P2;PMS_P1;PMS_P2;Temp;Humidity;BMP_temperature;BMP_pressure;BME280_temperature;BME280_humidity;BME280_pressure;Samples;Min_cycle;Max_cycle;Signal;HPM_P1;HPM_P2
2023/04/25 00:00:21;;;;;;;11.33;5.10;;;;;;;;;;5034696;28;20287;-54
2023/04/25 00:02:48;;;;;;;13.67;5.03;;;;;;;;;;5034644;28;20671;-55
2023/04/25 00:05:15;;;;;;;9.30;5.03;;;;;;;;;;5034636;28;20201;-54
2023/04/25 00:07:42;;;;;;;8.27;4.47;;;;;;;;;;5034548;28;20267;-54
2023/04/25 00:10:11;;;;;;;11.07;5.00;;;;;;;;;;5032705;28;20214;-55
2023/04/25 00:12:37;;;;;;;9.27;5.33;;;;;;;;;;5032721;28;20236;-54
2023/04/25 00:15:03;;;;;;;9.70;5.20;;;;;;;;;;5034208;28;20240;-54
2023/04/25 00:17:31;;;;;;;8.93;5.37;;;;;;;;;;5034560;28;20197;-54
2023/04/25 00:19:58;;;;;;;12.03;5.73;;;;;;;;;;5034486;28;20569;-54
2023/04/25 00:22:24;;;;;;;12.07;5.60;;;;;;;;;;5034367;28;20201;-54
2023/04/25 00:24:50;;;;;;;9.57;5.63;;;;;;;;;;5032751;28;20331;-54
2023/04/25 00:27:17;;;;;;;14.73;5.77;;;;;;;;;;5034148;28;20197;-54
2023/04/25 00:29:43;;;;;;;12.77;5.70;;;;;;;;;;5034075;28;20201;-54
2023/04/25 00:32:09;;;;;;;15.97;5.67;;;;;;;;;;5033916;28;20525;-54
2023/04/25 00:34:35;;;;;;;11.77;6.23;;;;;;;;;;5033950;28;20228;-54
2023/04/25 00:37:02;;;;;;;11.13;5.63;;;;;;;;;;5033848;28;20748;-54
2023/04/25 00:39:28;;;;;;;9.73;6.20;;;;;;;;;;5033902;28;20197;-54
2023/04/25 00:41:54;;;;;;;14.47;6.50;;;;;;;;;;5033716;28;20204;-54
2023/04/25 00:44:22;;;;;;;9.87;6.33;;;;;;;;;;5033891;28;20263;-54
2023/04/25 00:46:51;;;;;;;7.77;6.00;;;;;;;;;;5033803;28;20197;-54
2023/04/25 00:49:17;;;;;;;12.93;7.17;;;;;;;;;;5033615;28;20550;-54
2023/04/25 00:51:44;;;;;;;15.43;7.20;;;;;;;;;;5033540;28;20262;-54
2023/04/25 00:54:10;;;;;;;12.73;6.07;;;;;;;;;;5033387;28;20312;-54
2023/04/25 00:56:36;;;;;;;13.10;6.07;;;;;;;;;;5033613;28;20201;-54
2023/04/25 00:59:02;;;;;;;15.37;6.80;;;;;;;;;;5033518;28;20201;-54
2023/04/25 01:01:31;;;;;;;10.03;6.57;;;;;;;;;;5033429;28;20201;-54
2023/04/25 01:03:58;;;;;;;12.43;7.30;;;;;;;;;;5033200;28;20313;-54
2023/04/25 01:06:25;;;;;;;13.67;7.23;;;;;;;;;;5033246;28;20651;-54
2023/04/25 01:08:51;;;;;;;11.10;6.23;;;;;;;;;;5033488;28;20216;-54
2023/04/25 01:11:17;;;;;;;11.63;5.90;;;;;;;;;;5033358;28;20192;-54
2023/04/25 01:13:43;;;;;;;11.67;6.33;;;;;;;;;;5032940;28;20239;-53
2023/04/25 01:16:10;;;;;;;9.10;6.23;;;;;;;;;;5033092;28;20201;-54
2023/04/25 01:18:37;;;;;;;8.77;5.90;;;;;;;;;;5033212;28;20197;-54
2023/04/25 01:21:09;;;;;;;7.83;4.90;;;;;;;;;;5033212;28;20209;-54
2023/04/25 01:23:35;;;;;;;9.30;4.10;;;;;;;;;;5033203;28;20205;-53
2023/04/25 01:26:01;;;;;;;11.27;3.80;;;;;;;;;;5032947;28;20207;-54
2023/04/25 01:28:28;;;;;;;7.83;3.97;;;;;;;;;;5033071;28;20197;-54
2023/04/25 01:30:54;;;;;;;9.90;4.23;;;;;;;;;;5032755;28;20213;-54
2023/04/25 01:33:21;;;;;;;12.93;4.00;;;;;;;;;;5032843;28;20229;-54
2023/04/25 01:35:47;;;;;;;7.83;4.10;;;;;;;;;;5032706;28;20201;-54
2023/04/25 01:38:14;;;;;;;10.47;4.23;;;;;;;;;;5032642;28;20251;-54
2023/04/25 01:40:41;;;;;;;13.70;3.80;;;;;;;;;;5032664;28;20215;-54
2023/04/25 01:43:11;;;;;;;12.23;4.53;;;;;;;;;;5032473;28;20203;-54
2023/04/25 01:45:40;;;;;;;15.20;4.50;;;;;;;;;;5032469;28;20276;-54
2023/04/25 01:48:07;;;;;;;10.77;3.67;;;;;;;;;;5032351;28;20259;-54
2023/04/25 01:50:33;;;;;;;8.97;3.70;;;;;;;;;;5032735;28;20239;-54
2023/04/25 01:52:59;;;;;;;8.97;3.77;;;;;;;;;;5032249;28;20236;-54
2023/04/25 01:55:27;;;;;;;9.27;3.50;;;;;;;;;;5032433;28;20212;-54
2023/04/25 01:57:53;;;;;;;11.57;3.67;;;;;;;;;;5032274;28;20280;-54
2023/04/25 02:00:19;;;;;;;8.77;3.40;;;;;;;;;;5032342;28;20257;-54
2023/04/25 02:02:45;;;;;;;10.73;4.00;;;;;;;;;;5032375;28;20279;-54
2023/04/25 02:05:11;;;;;;;8.73;3.83;;;;;;;;;;5030917;28;20538;-54
2023/04/25 02:07:37;;;;;;;12.17;3.83;;;;;;;;;;5032129;28;20208;-54
2023/04/25 02:10:04;;;;;;;13.93;4.43;;;;;;;;;;5032318;28;20212;-54
2023/04/25 02:12:31;;;;;;;11.20;4.00;;;;;;;;;;5030711;28;20698;-54
2023/04/25 02:14:57;;;;;;;12.73;3.80;;;;;;;;;;5031627;28;20715;-54
2023/04/25 02:17:23;;;;;;;12.23;4.47;;;;;;;;;;5031892;28;20201;-54
2023/04/25 02:19:50;;;;;;;13.00;3.70;;;;;;;;;;5032359;28;20199;-54
2023/04/25 02:22:16;;;;;;;9.43;3.70;;;;;;;;;;5031820;28;20201;-54
2023/04/25 02:24:42;;;;;;;13.37;4.17;;;;;;;;;;5031826;28;20638;-54
2023/04/25 02:27:08;;;;;;;10.50;3.60;;;;;;;;;;5031666;28;20211;-54
2023/04/25 02:29:35;;;;;;;11.53;4.10;;;;;;;;;;5031912;28;20200;-54
2023/04/25 02:32:01;;;;;;;12.77;3.83;;;;;;;;;;5031830;28;20217;-54
2023/04/25 02:34:27;;;;;;;10.13;3.63;;;;;;;;;;5031773;28;20372;-54
2023/04/25 02:36:53;;;;;;;14.87;4.53;;;;;;;;;;5031680;28;20201;-54
2023/04/25 02:39:21;;;;;;;13.70;4.00;;;;;;;;;;5031671;28;20203;-54
2023/04/25 02:41:47;;;;;;;12.33;3.90;;;;;;;;;;5032140;28;20205;-54
2023/04/25 02:44:13;;;;;;;14.20;4.40;;;;;;;;;;5031589;28;20201;-54
2023/04/25 02:46:41;;;;;;;9.13;4.00;;;;;;;;;;5031465;28;20201;-54
2023/04/25 02:49:07;;;;;;;15.13;4.30;;;;;;;;;;5030885;28;20204;-54
2023/04/25 02:51:33;;;;;;;12.57;3.83;;;;;;;;;;5031785;28;20185;-54
2023/04/25 02:53:59;;;;;;;13.20;3.90;;;;;;;;;;5031435;28;20741;-54
2023/04/25 02:56:26;;;;;;;9.03;4.17;;;;;;;;;;5031503;28;20259;-54
2023/04/25 02:58:51;;;;;;;14.07;5.10;;;;;;;;;;5031416;28;20208;-54
2023/04/25 03:01:17;;;;;;;14.13;4.67;;;;;;;;;;5031596;28;20275;-54
2023/04/25 03:03:45;;;;;;;10.47;3.90;;;;;;;;;;5031361;28;20655;-54
2023/04/25 03:06:11;;;;;;;8.67;3.57;;;;;;;;;;5031398;28;20217;-54
2023/04/25 03:08:37;;;;;;;13.33;3.93;;;;;;;;;;5031431;28;20196;-54
2023/04/25 03:11:03;;;;;;;11.73;4.00;;;;;;;;;;5031348;28;20225;-54
2023/04/25 03:13:29;;;;;;;8.70;3.53;;;;;;;;;;5031213;28;20259;-54
2023/04/25 03:15:55;;;;;;;15.77;4.33;;;;;;;;;;5031061;28;20220;-54
2023/04/25 03:18:21;;;;;;;9.23;3.97;;;;;;;;;;5031213;28;20300;-54
2023/04/25 03:20:49;;;;;;;9.70;3.93;;;;;;;;;;5031370;28;20224;-54
2023/04/25 03:23:15;;;;;;;14.77;4.23;;;;;;;;;;5031209;28;20205;-54
2023/04/25 03:25:41;;;;;;;13.97;4.00;;;;;;;;;;5031199;28;20684;-54
2023/04/25 03:28:07;;;;;;;14.27;4.30;;;;;;;;;;5031096;28;20200;-54
2023/04/25 03:30:33;;;;;;;13.93;4.27;;;;;;;;;;5031388;28;20200;-54
2023/04/25 03:32:59;;;;;;;13.37;4.50;;;;;;;;;;5030951;28;20211;-54
2023/04/25 03:35:25;;;;;;;14.67;4.43;;;;;;;;;;5031070;28;20259;-54
2023/04/25 03:37:52;;;;;;;14.57;4.73;;;;;;;;;;5031350;28;20205;-54
2023/04/25 03:40:18;;;;;;;11.43;3.60;;;;;;;;;;5031164;28;20698;-52
2023/04/25 03:42:44;;;;;;;12.23;3.87;;;;;;;;;;5030966;28;20201;-54
2023/04/25 03:45:11;;;;;;;10.70;5.00;;;;;;;;;;5030767;28;20216;-54
2023/04/25 03:47:37;;;;;;;9.67;4.23;;;;;;;;;;5030864;28;20197;-54
2023/04/25 03:50:04;;;;;;;16.80;4.60;;;;;;;;;;5031000;28;20558;-54
2023/04/25 03:52:30;;;;;;;16.63;4.00;;;;;;;;;;5030895;28;20193;-53
2023/04/25 03:54:57;;;;;;;18.13;4.57;;;;;;;;;;5030712;28;20225;-54
2023/04/25 03:57:23;;;;;;;14.70;4.57;;;;;;;;;;5030797;28;20327;-54
2023/04/25 03:59:49;;;;;;;13.60;4.17;;;;;;;;;;5033309;28;20222;-54
2023/04/25 04:02:15;;;;;;;11.70;4.50;;;;;;;;;;5034483;28;20276;-54
2023/04/25 04:04:43;;;;;;;22.93;4.60;;;;;;;;;;5034628;28;20231;-54
2023/04/25 04:07:10;;;;;;;14.27;3.70;;;;;;;;;;5034404;28;20197;-53
2023/04/25 04:09:36;;;;;;;13.37;4.47;;;;;;;;;;5034615;28;20629;-53
2023/04/25 04:12:03;;;;;;;10.17;3.83;;;;;;;;;;5034370;28;20584;-54
2023/04/25 04:14:29;;;;;;;14.73;4.17;;;;;;;;;;5034184;28;20240;-54
2023/04/25 04:16:55;;;;;;;13.13;4.00;;;;;;;;;;5034042;28;20216;-54
2023/04/25 04:19:21;;;;;;;12.13;4.17;;;;;;;;;;5034233;28;20233;-54
2023/04/25 04:21:47;;;;;;;9.57;4.20;;;;;;;;;;5034403;28;20197;-54
2023/04/25 04:24:14;;;;;;;13.53;4.13;;;;;;;;;;5034364;28;20595;-54
2023/04/25 04:26:40;;;;;;;11.00;3.93;;;;;;;;;;5034284;28;20201;-54
2023/04/25 04:29:08;;;;;;;14.27;4.30;;;;;;;;;;5034144;28;20204;-54
2023/04/25 04:31:34;;;;;;;11.53;4.33;;;;;;;;;;5034248;28;20205;-53
2023/04/25 04:34:01;;;;;;;12.67;4.73;;;;;;;;;;5033926;28;20637;-53
2023/04/25 04:36:27;;;;;;;9.93;3.70;;;;;;;;;;5033893;28;20709;-53
2023/04/25 04:38:53;;;;;;;15.63;4.77;;;;;;;;;;5033882;28;20497;-54
2023/04/25 04:41:19;;;;;;;23.17;4.47;;;;;;;;;;5033913;28;20206;-54
2023/04/25 04:43:45;;;;;;;10.90;4.10;;;;;;;;;;5034013;28;20193;-54
2023/04/25 04:46:13;;;;;;;12.67;3.70;;;;;;;;;;5033637;28;20205;-54
2023/04/25 04:48:39;;;;;;;13.13;4.40;;;;;;;;;;5033771;28;20209;-53
2023/04/25 04:51:06;;;;;;;15.53;4.20;;;;;;;;;;5033615;28;20205;-54
2023/04/25 04:53:32;;;;;;;12.80;3.93;;;;;;;;;;5033723;28;20655;-54
2023/04/25 04:55:58;;;;;;;21.73;4.67;;;;;;;;;;5033573;28;20200;-53
2023/04/25 04:58:24;;;;;;;11.47;3.83;;;;;;;;;;5033484;28;20251;-54
2023/04/25 05:00:50;;;;;;;12.73;3.90;;;;;;;;;;5033611;28;20192;-53
2023/04/25 05:03:17;;;;;;;13.63;4.13;;;;;;;;;;5033350;28;20197;-54
2023/04/25 05:05:43;;;;;;;14.27;4.30;;;;;;;;;;5033574;28;20207;-54
2023/04/25 05:08:09;;;;;;;15.30;4.93;;;;;;;;;;5033193;28;20576;-53
2023/04/25 05:10:35;;;;;;;10.07;3.60;;;;;;;;;;5032633;28;20201;-53
2023/04/25 05:13:01;;;;;;;11.37;3.77;;;;;;;;;;5033621;28;20223;-53
2023/04/25 05:15:27;;;;;;;15.60;4.27;;;;;;;;;;5032774;28;20585;-53
2023/04/25 05:17:53;;;;;;;11.67;3.90;;;;;;;;;;5032909;28;20235;-53
2023/04/25 05:20:21;;;;;;;12.23;4.17;;;;;;;;;;5033132;28;20236;-53
2023/04/25 05:22:47;;;;;;;15.13;4.20;;;;;;;;;;5032838;28;20209;-53
2023/04/25 05:25:12;;;;;;;9.60;3.93;;;;;;;;;;5033047;28;20196;-53
2023/04/25 05:27:39;;;;;;;13.03;3.90;;;;;;;;;;5032934;28;20201;-53
2023/04/25 05:30:05;;;;;;;12.60;3.70;;;;;;;;;;5032981;28;20276;-53
2023/04/25 05:32:31;;;;;;;12.03;3.97;;;;;;;;;;5032894;28;20200;-53
2023/04/25 05:34:57;;;;;;;11.83;3.93;;;;;;;;;;5032506;28;20228;-53
2023/04/25 05:37:25;;;;;;;11.17;3.90;;;;;;;;;;5032545;28;20201;-54
2023/04/25 05:39:51;;;;;;;9.60;3.70;;;;;;;;;;5032976;28;20251;-53
2023/04/25 05:42:17;;;;;;;10.80;3.43;;;;;;;;;;5032633;28;20197;-54
2023/04/25 05:44:43;;;;;;;13.30;4.20;;;;;;;;;;5032651;28;20201;-53
2023/04/25 05:47:09;;;;;;;10.43;3.87;;;;;;;;;;5032378;28;20204;-54
2023/04/25 05:49:35;;;;;;;12.50;3.50;;;;;;;;;;5032475;28;20197;-54
2023/04/25 05:52:01;;;;;;;11.73;3.57;;;;;;;;;;5032607;28;20193;-53
2023/04/25 05:54:28;;;;;;;12.00;3.93;;;;;;;;;;5032278;28;21395;-54
2023/04/25 05:56:54;;;;;;;14.90;3.70;;;;;;;;;;5032404;28;20201;-54
2023/04/25 05:59:20;;;;;;;9.63;4.00;;;;;;;;;;5032350;28;20287;-54
2023/04/25 06:01:46;;;;;;;11.27;4.40;;;;;;;;;;5032397;28;20223;-54
2023/04/25 06:04:12;;;;;;;11.93;4.17;;;;;;;;;;5032191;28;20205;-54
2023/04/25 06:06:38;;;;;;;13.37;3.90;;;;;;;;;;5032175;28;20204;-54
2023/04/25 06:09:04;;;;;;;9.00;3.30;;;;;;;;;;5032508;28;20197;-53
2023/04/25 06:11:32;;;;;;;18.53;4.30;;;;;;;;;;5032102;28;20566;-53
2023/04/25 06:13:58;;;;;;;13.77;3.90;;;;;;;;;;5031787;28;20240;-54
2023/04/25 06:16:25;;;;;;;10.50;3.70;;;;;;;;;;5031830;28;20224;-53
2023/04/25 06:18:51;;;;;;;13.83;3.67;;;;;;;;;;5031960;28;20197;-53
2023/04/25 06:21:17;;;;;;;11.93;3.87;;;;;;;;;;5032093;28;20216;-53
2023/04/25 06:23:43;;;;;;;12.53;3.73;;;;;;;;;;5032010;28;20535;-53
2023/04/25 06:26:09;;;;;;;9.67;4.27;;;;;;;;;;5031795;28;20204;-53
2023/04/25 06:28:36;;;;;;;11.73;3.83;;;;;;;;;;5032092;28;20208;-53
2023/04/25 06:31:03;;;;;;;12.27;3.73;;;;;;;;;;5031872;28;20218;-53
2023/04/25 06:33:29;;;;;;;10.37;3.20;;;;;;;;;;5031490;28;20681;-53
2023/04/25 06:35:55;;;;;;;8.27;3.20;;;;;;;;;;5031647;28;20422;-53
2023/04/25 06:38:21;;;;;;;8.53;3.40;;;;;;;;;;5031720;28;20240;-52
2023/04/25 06:40:47;;;;;;;10.53;3.50;;;;;;;;;;5031969;28;20204;-53
2023/04/25 06:43:13;;;;;;;9.87;3.53;;;;;;;;;;5031605;28;20216;-53
2023/04/25 06:45:40;;;;;;;5.83;3.10;;;;;;;;;;5031761;28;20197;-53
2023/04/25 06:48:06;;;;;;;11.67;3.60;;;;;;;;;;5031511;28;20201;-53
2023/04/25 06:50:35;;;;;;;10.87;3.67;;;;;;;;;;5031919;28;20201;-53
2023/04/25 06:53:01;;;;;;;8.40;2.57;;;;;;;;;;5031509;28;20548;-53
2023/04/25 06:55:27;;;;;;;8.20;3.00;;;;;;;;;;5031301;28;20228;-53
2023/04/25 06:57:53;;;;;;;9.43;3.43;;;;;;;;;;5031541;28;20208;-53
2023/04/25 07:00:19;;;;;;;8.53;3.10;;;;;;;;;;5031572;28;20193;-53
2023/04/25 07:02:47;;;;;;;8.37;2.60;;;;;;;;;;5031549;28;20300;-53
2023/04/25 07:05:13;;;;;;;12.77;3.53;;;;;;;;;;5031382;28;20215;-53
2023/04/25 07:07:39;;;;;;;8.07;2.63;;;;;;;;;;5031402;28;20196;-54
2023/04/25 07:10:05;;;;;;;7.60;2.70;;;;;;;;;;5031418;28;20686;-54
2023/04/25 07:12:31;;;;;;;7.27;2.67;;;;;;;;;;5031273;28;20224;-54
2023/04/25 07:14:57;;;;;;;9.50;2.80;;;;;;;;;;5031043;28;20287;-53
2023/04/25 07:17:23;;;;;;;5.77;2.60;;;;;;;;;;5030965;28;20642;-52
2023/04/25 07:19:51;;;;;;;10.33;3.13;;;;;;;;;;5031298;28;20208;-53
2023/04/25 07:22:17;;;;;;;12.90;3.40;;;;;;;;;;5031302;28;20276;-52
2023/04/25 07:24:47;;;;;;;11.93;3.37;;;;;;;;;;5031370;28;20659;-53
2023/04/25 07:27:13;;;;;;;7.53;3.10;;;;;;;;;;5031204;28;20212;-54
2023/04/25 07:29:39;;;;;;;7.33;2.47;;;;;;;;;;5031154;28;20197;-53
2023/04/25 07:32:05;;;;;;;5.50;2.53;;;;;;;;;;5031304;28;20659;-54
2023/04/25 07:34:31;;;;;;;11.30;3.20;;;;;;;;;;5032987;28;20224;-54
2023/04/25 07:36:59;;;;;;;7.37;2.50;;;;;;;;;;5035069;28;20204;-53
2023/04/25 07:39:25;;;;;;;7.90;2.37;;;;;;;;;;5034827;28;20255;-52
2023/04/25 07:41:51;;;;;;;7.80;2.70;;;;;;;;;;5035092;28;20200;-53
2023/04/25 07:44:17;;;;;;;8.73;2.60;;;;;;;;;;5034946;28;20185;-53
2023/04/25 07:46:43;;;;;;;7.57;2.57;;;;;;;;;;5034689;28;20209;-53
2023/04/25 07:49:10;;;;;;;8.53;2.53;;;;;;;;;;5034833;28;20196;-53
2023/04/25 07:51:36;;;;;;;7.27;2.27;;;;;;;;;;5034714;28;20201;-53
2023/04/25 07:54:05;;;;;;;6.10;2.73;;;;;;;;;;5034543;28;20683;-53
2023/04/25 07:56:31;;;;;;;6.70;3.13;;;;;;;;;;5035144;28;20209;-53
2023/04/25 07:58:57;;;;;;;9.93;2.90;;;;;;;;;;5034743;28;20345;-53
2023/04/25 08:01:23;;;;;;;7.20;2.57;;;;;;;;;;5034495;28;20295;-53
2023/04/25 08:03:49;;;;;;;4.23;1.97;;;;;;;;;;5034791;28;20280;-53
2023/04/25 08:06:15;;;;;;;5.53;2.70;;;;;;;;;;5034700;28;20197;-53
2023/04/25 08:08:41;;;;;;;7.33;2.60;;;;;;;;;;5034529;28;20209;-53
2023/04/25 08:11:12;;;;;;;9.63;2.70;;;;;;;;;;5034519;28;20307;-53
2023/04/25 08:13:38;;;;;;;7.03;2.33;;;;;;;;;;5034037;28;20224;-53
2023/04/25 08:16:04;;;;;;;7.73;2.47;;;;;;;;;;5034387;28;20663;-53
2023/04/25 08:18:30;;;;;;;5.17;2.30;;;;;;;;;;5034162;28;20205;-53
2023/04/25 08:20:56;;;;;;;6.23;2.33;;;;;;;;;;5034361;28;20236;-54
2023/04/25 08:23:22;;;;;;;7.67;2.20;;;;;;;;;;5032765;28;20201;-53
2023/04/25 08:25:48;;;;;;;6.67;2.40;;;;;;;;;;5034433;28;20205;-53
2023/04/25 08:28:16;;;;;;;6.93;2.30;;;;;;;;;;5034111;28;20242;-53
2023/04/25 08:30:42;;;;;;;5.53;2.10;;;;;;;;;;5034121;28;20201;-53
2023/04/25 08:33:08;;;;;;;8.37;2.70;;;;;;;;;;5034129;28;20193;-53
2023/04/25 08:35:34;;;;;;;9.00;2.10;;;;;;;;;;5034063;28;20231;-54
2023/04/25 08:38:01;;;;;;;6.40;2.10;;;;;;;;;;5034113;28;20193;-54
2023/04/25 08:40:29;;;;;;;6.00;2.20;;;;;;;;;;5033767;28;20204;-54
2023/04/25 08:42:57;;;;;;;7.50;2.17;;;;;;;;;;5034113;28;20197;-56
2023/04/25 08:45:24;;;;;;;4.93;2.30;;;;;;;;;;5032727;28;20212;-55
2023/04/25 08:47:52;;;;;;;6.17;2.10;;;;;;;;;;5033794;28;20205;-56
2023/04/25 08:50:21;;;;;;;5.33;2.00;;;;;;;;;;5033751;28;20212;-54
2023/04/25 08:52:47;;;;;;;6.47;2.13;;;;;;;;;;5034013;28;20208;-52
2023/04/25 08:55:14;;;;;;;5.10;2.13;;;;;;;;;;5033703;28;20232;-60
2023/04/25 08:57:42;;;;;;;4.17;1.80;;;;;;;;;;5033853;28;20489;-59
2023/04/25 09:00:09;;;;;;;5.10;2.30;;;;;;;;;;5033804;28;20201;-55
2023/04/25 09:02:36;;;;;;;5.33;2.07;;;;;;;;;;5033744;28;20300;-56
2023/04/25 09:05:04;;;;;;;4.03;1.60;;;;;;;;;;5033865;28;20255;-54
2023/04/25 09:07:30;;;;;;;5.20;1.90;;;;;;;;;;5033619;28;20682;-55
2023/04/25 09:09:56;;;;;;;3.20;1.70;;;;;;;;;;5033633;28;20283;-55
2023/04/25 09:12:23;;;;;;;7.33;1.87;;;;;;;;;;5031406;28;20299;-54
2023/04/25 09:15:03;;;;;;;4.93;1.97;;;;;;;;;;5032928;28;20722;-55
2023/04/25 09:17:30;;;;;;;5.27;1.83;;;;;;;;;;5032744;28;20200;-55
2023/04/25 09:20:05;;;;;;;4.10;2.10;;;;;;;;;;5033065;28;20208;-54
2023/04/25 09:22:31;;;;;;;6.57;2.10;;;;;;;;;;5033055;28;20192;-55
2023/04/25 09:24:57;;;;;;;6.97;2.10;;;;;;;;;;5033016;28;20197;-55
2023/04/25 09:27:23;;;;;;;4.33;1.67;;;;;;;;;;5032870;28;20208;-54
2023/04/25 09:29:56;;;;;;;8.57;2.50;;;;;;;;;;5033171;28;20201;-55
2023/04/25 09:32:23;;;;;;;5.67;2.00;;;;;;;;;;5032835;28;20300;-56
2023/04/25 09:34:50;;;;;;;4.63;2.00;;;;;;;;;;5033527;28;20220;-55
2023/04/25 09:37:21;;;;;;;5.20;2.00;;;;;;;;;;5033135;28;20193;-55
2023/04/25 09:39:47;;;;;;;4.30;1.90;;;;;;;;;;5032707;28;20197;-56
2023/04/25 09:42:15;;;;;;;4.57;1.87;;;;;;;;;;5032454;28;20239;-55
2023/04/25 09:44:43;;;;;;;5.63;2.20;;;;;;;;;;5032424;28;20243;-55
2023/04/25 09:47:11;;;;;;;4.83;2.17;;;;;;;;;;5032321;28;20216;-54
2023/04/25 09:49:39;;;;;;;5.33;2.20;;;;;;;;;;5032319;28;20296;-55
2023/04/25 09:52:05;;;;;;;6.80;2.40;;;;;;;;;;5032573;28;20220;-56
2023/04/25 09:54:32;;;;;;;4.63;1.90;;;;;;;;;;5032236;28;20231;-54
2023/04/25 09:57:00;;;;;;;3.60;1.43;;;;;;;;;;5032067;28;20563;-54
2023/04/25 09:59:27;;;;;;;3.03;1.40;;;;;;;;;;5032309;28;20203;-54
2023/04/25 10:01:55;;;;;;;4.43;1.83;;;;;;;;;;5032134;28;20204;-55
2023/04/25 10:04:28;;;;;;;6.50;1.80;;;;;;;;;;5032277;28;20251;-55
2023/04/25 10:06:55;;;;;;;2.90;1.60;;;;;;;;;;5032097;28;20200;-56
2023/04/25 10:09:22;;;;;;;2.43;1.43;;;;;;;;;;5031970;28;20200;-56
2023/04/25 10:11:50;;;;;;;5.07;1.70;;;;;;;;;;5031899;28;20670;-55
2023/04/25 10:14:16;;;;;;;4.87;1.80;;;;;;;;;;5031726;28;20247;-54
2023/04/25 10:16:43;;;;;;;2.40;1.53;;;;;;;;;;5031709;28;20648;-54
2023/04/25 10:19:09;;;;;;;2.87;1.77;;;;;;;;;;5031980;28;20555;-55
2023/04/25 10:21:38;;;;;;;6.43;1.90;;;;;;;;;;5031768;28;20207;-54
2023/04/25 10:24:04;;;;;;;4.50;1.70;;;;;;;;;;5031930;28;20199;-54
2023/04/25 10:26:30;;;;;;;5.07;1.60;;;;;;;;;;5031665;28;20209;-55
2023/04/25 10:28:58;;;;;;;4.77;1.97;;;;;;;;;;5032107;28;20647;-55
2023/04/25 10:31:25;;;;;;;3.07;1.70;;;;;;;;;;5031389;28;20212;-55
2023/04/25 10:33:51;;;;;;;3.83;1.67;;;;;;;;;;5031532;28;20201;-54
2023/04/25 10:36:18;;;;;;;4.00;1.77;;;;;;;;;;5031651;28;20722;-55
2023/04/25 10:38:45;;;;;;;8.17;2.07;;;;;;;;;;5030305;28;20215;-57
2023/04/25 10:41:12;;;;;;;4.97;1.80;;;;;;;;;;5031473;28;20196;-55
2023/04/25 10:43:38;;;;;;;1.93;1.47;;;;;;;;;;5031289;28;20250;-56
2023/04/25 10:46:19;;;;;;;3.37;1.40;;;;;;;;;;5031401;28;20201;-56
2023/04/25 10:48:49;;;;;;;6.07;1.43;;;;;;;;;;5031236;28;20211;-56
2023/04/25 10:51:19;;;;;;;3.63;1.43;;;;;;;;;;5031238;28;20297;-56
2023/04/25 10:53:45;;;;;;;3.53;1.50;;;;;;;;;;5031188;28;20196;-56
2023/04/25 10:56:12;;;;;;;4.23;1.70;;;;;;;;;;5031458;28;20259;-56
2023/04/25 10:58:42;;;;;;;1.80;1.40;;;;;;;;;;5030947;28;20647;-56
2023/04/25 11:01:08;;;;;;;2.73;1.53;;;;;;;;;;5031096;28;20201;-55
2023/04/25 11:03:39;;;;;;;4.13;1.80;;;;;;;;;;5031250;28;20193;-56
2023/04/25 11:06:06;;;;;;;2.33;1.70;;;;;;;;;;5031075;28;20197;-56
2023/04/25 11:08:37;;;;;;;5.23;2.10;;;;;;;;;;5030432;28;20211;-56
2023/04/25 11:11:03;;;;;;;4.90;1.80;;;;;;;;;;5031356;28;20212;-56
2023/04/25 11:13:30;;;;;;;3.80;1.60;;;;;;;;;;5030968;28;20624;-56
2023/04/25 11:15:56;;;;;;;5.20;1.90;;;;;;;;;;5030973;28;20220;-55
2023/04/25 11:18:22;;;;;;;4.00;1.60;;;;;;;;;;5030988;28;20197;-55
2023/04/25 11:20:49;;;;;;;3.77;1.50;;;;;;;;;;5031652;28;20197;-55
2023/04/25 11:23:16;;;;;;;2.53;1.40;;;;;;;;;;5031678;28;20204;-54
2023/04/25 11:25:42;;;;;;;3.10;1.50;;;;;;;;;;5031552;28;20855;-54
2023/04/25 11:28:08;;;;;;;4.00;1.40;;;;;;;;;;5031385;28;20204;-54
2023/04/25 11:30:34;;;;;;;6.53;1.80;;;;;;;;;;5031443;28;20265;-55
2023/04/25 11:33:02;;;;;;;5.37;1.70;;;;;;;;;;5031410;28;20220;-55
2023/04/25 11:35:28;;;;;;;4.03;1.80;;;;;;;;;;5031341;28;20228;-55
2023/04/25 11:37:56;;;;;;;4.80;1.97;;;;;;;;;;5031298;28;20211;-55
2023/04/25 11:40:22;;;;;;;3.23;1.90;;;;;;;;;;5031338;28;20201;-55
2023/04/25 11:42:48;;;;;;;2.87;1.50;;;;;;;;;;5031581;28;20674;-54
2023/04/25 11:45:14;;;;;;;3.63;1.67;;;;;;;;;;5031306;28;20201;-55
2023/04/25 11:47:40;;;;;;;3.50;1.20;;;;;;;;;;5031172;28;20236;-55
2023/04/25 11:50:08;;;;;;;2.80;1.40;;;;;;;;;;5031434;28;20236;-55
2023/04/25 11:52:38;;;;;;;3.27;1.27;;;;;;;;;;5031349;28;20205;-54
2023/04/25 11:55:07;;;;;;;1.27;1.03;;;;;;;;;;5031273;28;20312;-54
2023/04/25 11:57:33;;;;;;;1.97;1.20;;;;;;;;;;5031220;28;20205;-54
2023/04/25 12:00:05;;;;;;;4.43;1.40;;;;;;;;;;5031095;28;20189;-54
2023/04/25 12:02:32;;;;;;;2.03;1.23;;;;;;;;;;5031254;28;20201;-54
2023/04/25 12:04:59;;;;;;;2.13;1.10;;;;;;;;;;5031197;28;20190;-54
2023/04/25 12:07:30;;;;;;;5.70;1.40;;;;;;;;;;5031007;28;20220;-54
2023/04/25 12:09:56;;;;;;;2.87;1.30;;;;;;;;;;5031125;28;20205;-54
2023/04/25 12:12:27;;;;;;;2.53;1.27;;;;;;;;;;5030998;28;20217;-54
2023/04/25 12:14:55;;;;;;;1.87;1.13;;;;;;;;;;5030668;28;20236;-54
2023/04/25 12:17:21;;;;;;;1.87;1.50;;;;;;;;;;5031011;28;20205;-55
2023/04/25 12:19:47;;;;;;;3.77;1.40;;;;;;;;;;5031657;28;20236;-55
2023/04/25 12:22:20;;;;;;;2.47;1.57;;;;;;;;;;5034481;28;20244;-55
2023/04/25 12:24:46;;;;;;;3.80;1.30;;;;;;;;;;5034442;28;20279;-54
2023/04/25 12:27:16;;;;;;;2.00;1.20;;;;;;;;;;5034495;28;20296;-54
2023/04/25 12:29:51;;;;;;;3.17;1.20;;;;;;;;;;5034308;28;20227;-56
2023/04/25 12:32:17;;;;;;;1.80;1.40;;;;;;;;;;5034302;28;20621;-56
2023/04/25 12:34:43;;;;;;;3.47;1.57;;;;;;;;;;5034098;28;20229;-55
2023/04/25 12:37:10;;;;;;;3.47;1.37;;;;;;;;;;5034267;28;20228;-55
2023/04/25 12:39:36;;;;;;;3.90;1.90;;;;;;;;;;5034332;28;20197;-55
2023/04/25 12:42:03;;;;;;;2.60;1.60;;;;;;;;;;5034072;28;20197;-54
2023/04/25 12:44:28;;;;;;;3.93;1.57;;;;;;;;;;5033835;28;20200;-52
2023/04/25 12:46:56;;;;;;;3.53;1.80;;;;;;;;;;5033629;28;20205;-54
2023/04/25 12:49:23;;;;;;;5.13;1.87;;;;;;;;;;5033726;28;20208;-56
2023/04/25 12:51:49;;;;;;;3.90;1.57;;;;;;;;;;5033876;28;20238;-56
2023/04/25 12:54:15;;;;;;;4.07;1.50;;;;;;;;;;5033798;28;20196;-58
2023/04/25 12:56:42;;;;;;;6.97;1.93;;;;;;;;;;5033599;28;20204;-59
2023/04/25 12:59:08;;;;;;;3.47;1.53;;;;;;;;;;5033682;28;20279;-70
2023/04/25 13:01:34;;;;;;;2.23;1.63;;;;;;;;;;5033759;28;20201;-67
2023/04/25 13:04:01;;;;;;;4.70;1.77;;;;;;;;;;5033344;28;20201;-70
2023/04/25 13:06:27;;;;;;;3.23;1.43;;;;;;;;;;5033408;28;20243;-69
2023/04/25 13:08:54;;;;;;;4.30;1.57;;;;;;;;;;5033124;28;20579;-68
2023/04/25 13:11:20;;;;;;;3.07;1.50;;;;;;;;;;5032085;28;20204;-66
2023/04/25 13:13:46;;;;;;;4.47;1.70;;;;;;;;;;5033386;28;20324;-67
2023/04/25 13:16:13;;;;;;;3.43;1.70;;;;;;;;;;5033500;28;20320;-67
2023/04/25 13:18:40;;;;;;;3.73;1.37;;;;;;;;;;5031326;28;20201;-67
2023/04/25 13:21:07;;;;;;;2.87;1.40;;;;;;;;;;5033106;28;20220;-67
2023/04/25 13:23:33;;;;;;;3.80;1.60;;;;;;;;;;5032768;28;20228;-66
2023/04/25 13:26:01;;;;;;;4.13;1.50;;;;;;;;;;5032953;28;20213;-65
2023/04/25 13:28:27;;;;;;;2.33;1.40;;;;;;;;;;5033011;28;20562;-66
2023/04/25 13:30:53;;;;;;;1.60;1.50;;;;;;;;;;5032454;28;20553;-67
2023/04/25 13:33:20;;;;;;;3.30;1.80;;;;;;;;;;5032348;28;20208;-67
2023/04/25 13:35:56;;;;;;;3.47;1.40;;;;;;;;;;5032555;28;20591;-67
2023/04/25 13:38:24;;;;;;;2.00;1.33;;;;;;;;;;5032898;28;20204;-68
2023/04/25 13:40:52;;;;;;;3.00;1.60;;;;;;;;;;5032902;28;20196;-68
2023/04/25 13:43:18;;;;;;;4.27;1.50;;;;;;;;;;5032757;28;20622;-69
2023/04/25 13:45:45;;;;;;;3.97;1.37;;;;;;;;;;5032286;28;20662;-65
2023/04/25 13:48:11;;;;;;;4.40;1.60;;;;;;;;;;5032422;28;20694;-65
2023/04/25 13:50:37;;;;;;;4.93;1.77;;;;;;;;;;5032342;28;20586;-65
2023/04/25 13:53:03;;;;;;;3.43;1.57;;;;;;;;;;5032676;28;20193;-65
2023/04/25 13:55:30;;;;;;;6.43;1.57;;;;;;;;;;5032274;28;20631;-65
2023/04/25 13:57:56;;;;;;;2.27;1.30;;;;;;;;;;5030708;28;20211;-66
2023/04/25 14:00:22;;;;;;;4.70;1.67;;;;;;;;;;5032241;28;20197;-66
2023/04/25 14:02:49;;;;;;;2.40;1.40;;;;;;;;;;5032855;28;20196;-66
2023/04/25 14:05:15;;;;;;;4.47;1.50;;;;;;;;;;5032529;28;20729;-66
2023/04/25 14:07:41;;;;;;;3.93;1.60;;;;;;;;;;5032342;28;20205;-64
2023/04/25 14:10:07;;;;;;;2.10;1.27;;;;;;;;;;5032517;28;20197;-65
2023/04/25 14:12:35;;;;;;;2.77;1.60;;;;;;;;;;5032476;28;20604;-66
2023/04/25 14:15:01;;;;;;;4.77;1.70;;;;;;;;;;5032309;28;20275;-66
2023/04/25 14:17:27;;;;;;;3.67;1.57;;;;;;;;;;5032320;28;20205;-64
2023/04/25 14:19:53;;;;;;;5.67;1.93;;;;;;;;;;5032290;28;20200;-65
2023/04/25 14:22:19;;;;;;;4.67;1.77;;;;;;;;;;5032431;28;20541;-65
2023/04/25 14:24:45;;;;;;;2.80;1.70;;;;;;;;;;5032246;28;20204;-66
2023/04/25 14:27:11;;;;;;;2.33;1.63;;;;;;;;;;5032251;28;20224;-65
2023/04/25 14:29:39;;;;;;;5.03;2.20;;;;;;;;;;5032150;28;20200;-65
2023/04/25 14:32:05;;;;;;;6.23;1.50;;;;;;;;;;5032335;28;20675;-67
2023/04/25 14:34:31;;;;;;;5.10;1.70;;;;;;;;;;5032350;28;20244;-64